createdAt,value
2022-09-15T00:01:50.862Z,99.90
2022-09-15T00:11:55.964Z,99.90
2022-09-15T00:21:59.589Z,99.90
2022-09-15T00:32:04.996Z,99.90
2022-09-15T00:42:15.374Z,99.90
2022-09-15T00:52:26.667Z,99.90
2022-09-15T01:02:34.072Z,99.90
2022-09-15T01:12:40.995Z,99.90
2022-09-15T01:23:02.954Z,99.90
2022-09-15T01:33:32.316Z,99.90
2022-09-15T01:43:40.807Z,99.90
2022-09-15T01:53:46.937Z,99.90
2022-09-15T02:03:55.844Z,99.90
2022-09-15T02:14:11.263Z,99.90
2022-09-15T02:24:19.579Z,99.90
2022-09-15T02:34:29.037Z,99.90
2022-09-15T02:44:33.508Z,99.90
2022-09-15T02:54:38.416Z,99.90
2022-09-15T03:04:42.065Z,99.90
2022-09-15T03:14:47.199Z,99.90
2022-09-15T03:24:51.747Z,99.90
2022-09-15T03:34:59.110Z,99.90
2022-09-15T03:45:03.615Z,99.90
2022-09-15T03:55:11.016Z,99.90
2022-09-15T04:05:14.723Z,99.90
2022-09-15T04:15:20.259Z,99.90
2022-09-15T04:25:24.138Z,99.90
2022-09-15T04:35:30.801Z,99.90
2022-09-15T04:45:40.577Z,99.90
2022-09-15T04:55:47.531Z,99.90
2022-09-15T05:05:51.295Z,99.90
2022-09-15T05:15:56.325Z,99.90
2022-09-15T05:26:04.122Z,99.90
2022-09-15T05:36:10.956Z,99.90
2022-09-15T05:46:16.471Z,99.90
2022-09-15T05:56:21.772Z,99.90
2022-09-15T06:06:26.880Z,99.90
2022-09-15T06:16:34.301Z,99.90
2022-09-15T06:26:37.986Z,99.90
2022-09-15T06:36:43.833Z,99.90
2022-09-15T06:46:47.891Z,99.90
2022-09-15T06:56:52.998Z,99.90
2022-09-15T07:06:57.478Z,99.90
2022-09-15T07:17:02.873Z,99.90
2022-09-15T07:27:08.232Z,99.90
2022-09-15T07:37:13.246Z,99.90
2022-09-15T07:47:16.832Z,99.90
2022-09-15T07:57:21.998Z,99.90
2022-09-15T08:07:26.118Z,99.90
2022-09-15T08:17:31.414Z,99.90
2022-09-15T08:27:35.087Z,99.90
2022-09-15T08:37:40.366Z,99.90
2022-09-15T08:47:48.657Z,99.90
2022-09-15T08:57:55.592Z,99.90
2022-09-15T09:08:40.391Z,99.90
2022-09-15T09:19:05.263Z,99.90
2022-09-15T09:29:16.485Z,99.20
2022-09-15T09:39:22.629Z,99.90
2022-09-15T09:49:28.360Z,97.60
2022-09-15T09:59:42.037Z,99.90
2022-09-15T10:09:55.478Z,99.90
2022-09-15T10:20:00.602Z,98.40
2022-09-15T10:30:19.744Z,96.60
2022-09-15T10:40:35.276Z,97.30
2022-09-15T10:50:51.635Z,95.50
2022-09-15T11:01:10.802Z,95.30
2022-09-15T11:11:26.450Z,94.90
2022-09-15T11:21:39.040Z,93.50
2022-09-15T11:31:46.184Z,94.50
2022-09-15T11:41:56.521Z,95.40
2022-09-15T11:52:09.910Z,95.00
2022-09-15T12:02:26.627Z,95.60
2022-09-15T12:12:31.442Z,92.90
2022-09-15T12:22:42.850Z,91.80
2022-09-15T12:32:49.147Z,91.60
2022-09-15T12:42:57.562Z,86.30
2022-09-15T12:53:04.676Z,86.80
2022-09-15T13:03:30.010Z,84.80
2022-09-15T13:13:39.858Z,84.40
2022-09-15T13:23:48.956Z,82.60
2022-09-15T13:45:16.139Z,82.80
2022-09-15T13:55:26.133Z,82.90
2022-09-15T14:05:35.208Z,83.90
2022-09-15T14:15:40.693Z,82.10
2022-09-15T14:25:47.367Z,81.30
2022-09-15T14:35:51.090Z,82.60
2022-09-15T14:46:05.416Z,82.40
2022-09-15T14:56:17.936Z,83.50
2022-09-15T15:06:29.466Z,81.10
2022-09-15T15:16:33.601Z,76.10
2022-09-15T15:26:40.437Z,77.30
2022-09-15T15:36:46.509Z,77.10
2022-09-15T15:46:56.894Z,77.30
2022-09-15T15:57:25.161Z,76.70
2022-09-15T16:07:33.432Z,79.60
2022-09-15T16:17:37.318Z,81.50
2022-09-15T16:27:42.624Z,82.50
2022-09-15T16:37:47.200Z,83.70
2022-09-15T16:47:55.202Z,85.30
2022-09-15T16:57:59.735Z,85.60
2022-09-15T17:08:05.696Z,87.40
2022-09-15T17:18:13.348Z,89.10
2022-09-15T17:28:20.908Z,90.30
2022-09-15T17:38:27.115Z,91.00
2022-09-15T17:48:32.145Z,91.50
2022-09-15T17:58:35.768Z,92.10
2022-09-15T18:08:41.258Z,92.70
2022-09-15T18:18:44.972Z,93.10
2022-09-15T18:28:50.059Z,94.70
2022-09-15T18:38:53.780Z,96.20
2022-09-15T18:48:59.147Z,97.90
2022-09-15T18:59:02.778Z,97.40
2022-09-15T19:09:07.699Z,97.40
2022-09-15T19:19:11.570Z,99.90
2022-09-15T19:29:16.626Z,99.90
2022-09-15T19:39:20.346Z,99.90
2022-09-15T19:49:25.897Z,99.90
2022-09-15T19:59:31.554Z,99.90
2022-09-15T20:09:38.008Z,99.90
2022-09-15T20:19:42.029Z,99.90
2022-09-15T20:29:47.289Z,99.90
2022-09-15T20:39:51.488Z,99.90
2022-09-15T20:49:56.562Z,98.60
2022-09-15T21:00:00.151Z,96.10
2022-09-15T21:10:06.686Z,95.50
2022-09-15T21:20:11.172Z,96.00
2022-09-15T21:30:16.962Z,96.40
2022-09-15T21:40:20.685Z,97.30
2022-09-15T21:50:27.210Z,96.70
2022-09-15T22:00:30.883Z,97.10
2022-09-15T22:10:36.135Z,97.50
2022-09-15T22:20:39.735Z,97.70
2022-09-15T22:30:44.831Z,97.60
2022-09-15T22:40:48.441Z,98.00
2022-09-15T22:50:53.605Z,97.40
2022-09-15T23:01:04.984Z,97.80
2022-09-15T23:11:12.176Z,98.10
2022-09-15T23:21:16.063Z,98.90
2022-09-15T23:31:22.508Z,97.30
2022-09-15T23:41:26.402Z,96.40
2022-09-15T23:51:32.250Z,96.70
